sensor_id;sensor_type;location;lat;lon;timestamp;temperature;humidity
42615;DHT22;28754;47.700;7.924;2022-09-27T00:01:03;9.60;99.90
42615;DHT22;28754;47.700;7.924;2022-09-27T00:03:54;9.60;99.90
42615;DHT22;28754;47.700;7.924;2022-09-27T00:06:41;9.30;99.90
42615;DHT22;28754;47.700;7.924;2022-09-27T00:09:27;9.30;99.90
42615;DHT22;28754;47.700;7.924;2022-09-27T00:12:14;9.30;99.90
42615;DHT22;28754;47.700;7.924;2022-09-27T00:15:01;9.30;99.90
42615;DHT22;28754;47.700;7.924;2022-09-27T00:17:48;9.30;99.90
42615;DHT22;28754;47.700;7.924;2022-09-27T00:20:37;9.20;99.90
42615;DHT22;28754;47.700;7.924;2022-09-27T00:23:23;9.30;99.90
42615;DHT22;28754;47.700;7.924;2022-09-27T00:26:12;9.20;99.90
42615;DHT22;28754;47.700;7.924;2022-09-27T00:28:59;9.20;99.90
42615;DHT22;28754;47.700;7.924;2022-09-27T00:31:46;9.30;99.90
42615;DHT22;28754;47.700;7.924;2022-09-27T00:34:33;9.10;99.90
42615;DHT22;28754;47.700;7.924;2022-09-27T00:37:20;9.00;99.90
42615;DHT22;28754;47.700;7.924;2022-09-27T00:40:07;9.00;99.90
42615;DHT22;28754;47.700;7.924;2022-09-27T00:42:54;8.90;99.90
42615;DHT22;28754;47.700;7.924;2022-09-27T00:45:40;8.90;99.90
42615;DHT22;28754;47.700;7.924;2022-09-27T00:48:30;8.70;99.90
42615;DHT22;28754;47.700;7.924;2022-09-27T00:51:18;8.80;99.90
42615;DHT22;28754;47.700;7.924;2022-09-27T00:54:06;8.80;99.90
42615;DHT22;28754;47.700;7.924;2022-09-27T00:56:57;8.70;99.90
42615;DHT22;28754;47.700;7.924;2022-09-27T00:59:56;8.80;99.90
42615;DHT22;28754;47.700;7.924;2022-09-27T01:02:49;8.80;99.90
42615;DHT22;28754;47.700;7.924;2022-09-27T01:05:39;8.80;99.90
42615;DHT22;28754;47.700;7.924;2022-09-27T01:08:27;8.70;99.90
42615;DHT22;28754;47.700;7.924;2022-09-27T01:11:47;8.70;99.90
42615;DHT22;28754;47.700;7.924;2022-09-27T01:18:26;8.70;99.90
42615;DHT22;28754;47.700;7.924;2022-09-27T01:21:33;8.80;99.90
42615;DHT22;28754;47.700;7.924;2022-09-27T01:24:54;8.70;99.90
42615;DHT22;28754;47.700;7.924;2022-09-27T01:34:57;8.70;99.90
42615;DHT22;28754;47.700;7.924;2022-09-27T01:38:14;8.60;99.90
42615;DHT22;28754;47.700;7.924;2022-09-27T01:41:21;8.50;99.90
42615;DHT22;28754;47.700;7.924;2022-09-27T01:44:53;8.50;99.90
42615;DHT22;28754;47.700;7.924;2022-09-27T01:47:58;8.70;99.90
42615;DHT22;28754;47.700;7.924;2022-09-27T01:51:47;8.70;99.90
42615;DHT22;28754;47.700;7.924;2022-09-27T01:54:45;8.70;99.90
42615;DHT22;28754;47.700;7.924;2022-09-27T01:58:08;8.70;99.90
42615;DHT22;28754;47.700;7.924;2022-09-27T02:01:02;8.60;99.90
42615;DHT22;28754;47.700;7.924;2022-09-27T02:11:45;8.30;99.90
42615;DHT22;28754;47.700;7.924;2022-09-27T02:14:44;8.40;99.90
42615;DHT22;28754;47.700;7.924;2022-09-27T02:17:57;8.30;99.90
42615;DHT22;28754;47.700;7.924;2022-09-27T02:20:54;8.40;99.90
42615;DHT22;28754;47.700;7.924;2022-09-27T02:23:47;8.40;99.90
42615;DHT22;28754;47.700;7.924;2022-09-27T02:26:39;8.30;99.90
42615;DHT22;28754;47.700;7.924;2022-09-27T02:29:35;8.40;99.90
42615;DHT22;28754;47.700;7.924;2022-09-27T02:32:28;8.40;99.90
42615;DHT22;28754;47.700;7.924;2022-09-27T02:35:18;8.40;99.90
42615;DHT22;28754;47.700;7.924;2022-09-27T02:38:10;8.40;99.90
42615;DHT22;28754;47.700;7.924;2022-09-27T02:40:56;8.40;99.90
42615;DHT22;28754;47.700;7.924;2022-09-27T02:43:46;8.40;99.90
42615;DHT22;28754;47.700;7.924;2022-09-27T02:54:22;8.30;99.90
42615;DHT22;28754;47.700;7.924;2022-09-27T03:00:46;8.30;99.90
42615;DHT22;28754;47.700;7.924;2022-09-27T03:04:14;8.20;99.90
42615;DHT22;28754;47.700;7.924;2022-09-27T03:07:08;8.30;99.90
42615;DHT22;28754;47.700;7.924;2022-09-27T03:09:55;8.20;99.90
42615;DHT22;28754;47.700;7.924;2022-09-27T03:12:42;8.20;99.90
42615;DHT22;28754;47.700;7.924;2022-09-27T03:15:30;8.20;99.90
42615;DHT22;28754;47.700;7.924;2022-09-27T03:18:19;8.20;99.90
42615;DHT22;28754;47.700;7.924;2022-09-27T03:21:35;8.30;99.90
42615;DHT22;28754;47.700;7.924;2022-09-27T03:24:22;8.30;99.90
42615;DHT22;28754;47.700;7.924;2022-09-27T03:27:11;8.20;99.90
42615;DHT22;28754;47.700;7.924;2022-09-27T03:29:58;8.20;99.90
42615;DHT22;28754;47.700;7.924;2022-09-27T03:32:45;8.20;99.90
42615;DHT22;28754;47.700;7.924;2022-09-27T03:35:52;8.20;99.90
42615;DHT22;28754;47.700;7.924;2022-09-27T03:38:38;8.10;99.90
42615;DHT22;28754;47.700;7.924;2022-09-27T03:41:28;8.00;99.90
42615;DHT22;28754;47.700;7.924;2022-09-27T03:44:15;8.10;99.90
42615;DHT22;28754;47.700;7.924;2022-09-27T03:47:02;8.00;99.90
42615;DHT22;28754;47.700;7.924;2022-09-27T03:49:48;7.90;99.90
42615;DHT22;28754;47.700;7.924;2022-09-27T03:52:36;7.90;99.90
42615;DHT22;28754;47.700;7.924;2022-09-27T03:55:22;8.00;99.90
42615;DHT22;28754;47.700;7.924;2022-09-27T03:58:09;7.90;99.90
42615;DHT22;28754;47.700;7.924;2022-09-27T04:00:57;8.00;99.90
42615;DHT22;28754;47.700;7.924;2022-09-27T04:03:43;7.90;99.90
42615;DHT22;28754;47.700;7.924;2022-09-27T04:06:45;8.00;99.90
42615;DHT22;28754;47.700;7.924;2022-09-27T04:09:31;8.00;99.90
42615;DHT22;28754;47.700;7.924;2022-09-27T04:12:20;7.90;99.90
42615;DHT22;28754;47.700;7.924;2022-09-27T04:15:07;8.00;99.90
42615;DHT22;28754;47.700;7.924;2022-09-27T04:18:27;8.00;99.90
42615;DHT22;28754;47.700;7.924;2022-09-27T04:21:32;8.00;99.90
42615;DHT22;28754;47.700;7.924;2022-09-27T04:24:20;7.90;99.90
42615;DHT22;28754;47.700;7.924;2022-09-27T04:27:17;8.00;99.90
42615;DHT22;28754;47.700;7.924;2022-09-27T04:30:05;7.90;99.90
42615;DHT22;28754;47.700;7.924;2022-09-27T04:33:12;7.80;99.90
42615;DHT22;28754;47.700;7.924;2022-09-27T04:36:19;7.80;99.90
42615;DHT22;28754;47.700;7.924;2022-09-27T04:39:35;7.80;99.90
42615;DHT22;28754;47.700;7.924;2022-09-27T04:42:22;7.80;99.90
42615;DHT22;28754;47.700;7.924;2022-09-27T04:45:09;7.80;99.90
42615;DHT22;28754;47.700;7.924;2022-09-27T04:47:57;7.80;99.90
42615;DHT22;28754;47.700;7.924;2022-09-27T04:50:45;7.80;99.90
42615;DHT22;28754;47.700;7.924;2022-09-27T04:53:32;7.80;99.90
42615;DHT22;28754;47.700;7.924;2022-09-27T04:56:19;7.70;99.90
42615;DHT22;28754;47.700;7.924;2022-09-27T04:59:07;7.70;99.90
42615;DHT22;28754;47.700;7.924;2022-09-27T05:01:54;7.80;99.90
42615;DHT22;28754;47.700;7.924;2022-09-27T05:05:01;7.80;99.90
42615;DHT22;28754;47.700;7.924;2022-09-27T05:07:55;7.90;99.90
42615;DHT22;28754;47.700;7.924;2022-09-27T05:10:57;7.70;99.90
42615;DHT22;28754;47.700;7.924;2022-09-27T05:13:44;7.70;99.90
42615;DHT22;28754;47.700;7.924;2022-09-27T05:16:32;7.70;99.90
42615;DHT22;28754;47.700;7.924;2022-09-27T05:19:56;7.70;99.90
42615;DHT22;28754;47.700;7.924;2022-09-27T05:22:51;7.70;99.90
42615;DHT22;28754;47.700;7.924;2022-09-27T05:25:38;7.60;99.90
42615;DHT22;28754;47.700;7.924;2022-09-27T05:28:25;7.70;99.90
42615;DHT22;28754;47.700;7.924;2022-09-27T05:31:12;7.70;99.90
42615;DHT22;28754;47.700;7.924;2022-09-27T05:34:00;7.70;99.90
42615;DHT22;28754;47.700;7.924;2022-09-27T05:36:56;7.60;99.90
42615;DHT22;28754;47.700;7.924;2022-09-27T05:39:42;7.60;99.90
42615;DHT22;28754;47.700;7.924;2022-09-27T05:42:29;7.50;99.90
42615;DHT22;28754;47.700;7.924;2022-09-27T05:45:16;7.50;99.90
42615;DHT22;28754;47.700;7.924;2022-09-27T05:48:03;7.50;99.90
42615;DHT22;28754;47.700;7.924;2022-09-27T05:50:54;7.60;99.90
42615;DHT22;28754;47.700;7.924;2022-09-27T05:53:42;7.60;99.90
42615;DHT22;28754;47.700;7.924;2022-09-27T05:56:42;7.70;99.90
42615;DHT22;28754;47.700;7.924;2022-09-27T05:59:46;7.60;99.90
42615;DHT22;28754;47.700;7.924;2022-09-27T06:02:40;7.60;99.90
42615;DHT22;28754;47.700;7.924;2022-09-27T06:05:45;7.50;99.90
42615;DHT22;28754;47.700;7.924;2022-09-27T06:08:53;7.40;99.90
42615;DHT22;28754;47.700;7.924;2022-09-27T06:11:44;7.50;99.90
42615;DHT22;28754;47.700;7.924;2022-09-27T06:14:32;7.40;99.90
42615;DHT22;28754;47.700;7.924;2022-09-27T06:17:26;7.50;99.90
42615;DHT22;28754;47.700;7.924;2022-09-27T06:20:15;7.30;99.90
42615;DHT22;28754;47.700;7.924;2022-09-27T06:23:11;6.80;99.90
42615;DHT22;28754;47.700;7.924;2022-09-27T06:26:05;6.70;99.90
42615;DHT22;28754;47.700;7.924;2022-09-27T06:29:16;6.70;99.90
42615;DHT22;28754;47.700;7.924;2022-09-27T06:32:11;6.70;99.90
42615;DHT22;28754;47.700;7.924;2022-09-27T06:35:15;6.60;99.90
42615;DHT22;28754;47.700;7.924;2022-09-27T06:38:04;6.70;99.90
42615;DHT22;28754;47.700;7.924;2022-09-27T06:40:54;6.80;99.90
42615;DHT22;28754;47.700;7.924;2022-09-27T06:44:01;6.70;99.90
42615;DHT22;28754;47.700;7.924;2022-09-27T06:47:15;6.90;99.90
42615;DHT22;28754;47.700;7.924;2022-09-27T06:50:23;7.00;99.90
42615;DHT22;28754;47.700;7.924;2022-09-27T06:53:11;7.20;99.90
42615;DHT22;28754;47.700;7.924;2022-09-27T06:56:00;7.30;99.90
42615;DHT22;28754;47.700;7.924;2022-09-27T06:58:52;7.20;99.90
42615;DHT22;28754;47.700;7.924;2022-09-27T07:02:03;7.20;99.90
42615;DHT22;28754;47.700;7.924;2022-09-27T07:05:10;7.20;99.90
42615;DHT22;28754;47.700;7.924;2022-09-27T07:08:03;7.20;99.90
42615;DHT22;28754;47.700;7.924;2022-09-27T07:11:05;7.30;99.90
42615;DHT22;28754;47.700;7.924;2022-09-27T07:13:52;7.20;99.90
42615;DHT22;28754;47.700;7.924;2022-09-27T07:16:42;7.30;99.90
42615;DHT22;28754;47.700;7.924;2022-09-27T07:19:31;7.40;99.90
42615;DHT22;28754;47.700;7.924;2022-09-27T07:22:18;7.40;99.90
42615;DHT22;28754;47.700;7.924;2022-09-27T07:25:13;7.50;99.90
42615;DHT22;28754;47.700;7.924;2022-09-27T07:28:01;7.50;99.90
42615;DHT22;28754;47.700;7.924;2022-09-27T07:30:53;7.30;99.90
42615;DHT22;28754;47.700;7.924;2022-09-27T07:33:41;7.30;99.90
42615;DHT22;28754;47.700;7.924;2022-09-27T07:36:28;7.10;99.90
42615;DHT22;28754;47.700;7.924;2022-09-27T07:39:16;7.30;99.90
42615;DHT22;28754;47.700;7.924;2022-09-27T07:42:03;7.40;99.90
42615;DHT22;28754;47.700;7.924;2022-09-27T07:44:51;7.50;99.90
42615;DHT22;28754;47.700;7.924;2022-09-27T07:47:44;7.60;99.90
42615;DHT22;28754;47.700;7.924;2022-09-27T07:50:40;7.80;99.90
42615;DHT22;28754;47.700;7.924;2022-09-27T07:53:41;7.80;99.90
42615;DHT22;28754;47.700;7.924;2022-09-27T07:56:47;7.70;99.90
42615;DHT22;28754;47.700;7.924;2022-09-27T07:59:36;7.80;99.90
42615;DHT22;28754;47.700;7.924;2022-09-27T08:02:25;7.70;99.90
42615;DHT22;28754;47.700;7.924;2022-09-27T08:05:12;7.60;99.90
42615;DHT22;28754;47.700;7.924;2022-09-27T08:08:02;7.50;99.90
42615;DHT22;28754;47.700;7.924;2022-09-27T08:10:51;7.50;99.90
42615;DHT22;28754;47.700;7.924;2022-09-27T08:13:38;7.60;99.90
42615;DHT22;28754;47.700;7.924;2022-09-27T08:16:25;7.60;99.90
42615;DHT22;28754;47.700;7.924;2022-09-27T08:19:31;7.90;99.90
42615;DHT22;28754;47.700;7.924;2022-09-27T08:22:32;7.70;99.90
42615;DHT22;28754;47.700;7.924;2022-09-27T08:25:24;7.90;99.90
42615;DHT22;28754;47.700;7.924;2022-09-27T08:28:30;8.00;99.90
42615;DHT22;28754;47.700;7.924;2022-09-27T08:31:23;8.00;99.90
42615;DHT22;28754;47.700;7.924;2022-09-27T08:34:13;7.80;99.90
42615;DHT22;28754;47.700;7.924;2022-09-27T08:37:00;7.80;99.90
42615;DHT22;28754;47.700;7.924;2022-09-27T08:39:47;7.80;99.90
42615;DHT22;28754;47.700;7.924;2022-09-27T08:43:00;7.70;99.90
42615;DHT22;28754;47.700;7.924;2022-09-27T08:49:37;7.90;99.90
42615;DHT22;28754;47.700;7.924;2022-09-27T08:53:00;8.00;99.90
42615;DHT22;28754;47.700;7.924;2022-09-27T08:55:53;8.00;99.90
42615;DHT22;28754;47.700;7.924;2022-09-27T09:01:50;8.00;99.90
42615;DHT22;28754;47.700;7.924;2022-09-27T09:04:57;8.10;99.90
42615;DHT22;28754;47.700;7.924;2022-09-27T09:08:01;8.10;99.90
42615;DHT22;28754;47.700;7.924;2022-09-27T09:10:51;8.10;99.90
42615;DHT22;28754;47.700;7.924;2022-09-27T09:17:50;7.90;99.90
42615;DHT22;28754;47.700;7.924;2022-09-27T09:27:38;7.70;99.90
42615;DHT22;28754;47.700;7.924;2022-09-27T09:30:54;7.50;99.90
42615;DHT22;28754;47.700;7.924;2022-09-27T09:33:53;7.50;99.90
42615;DHT22;28754;47.700;7.924;2022-09-27T09:39:55;7.60;99.90
42615;DHT22;28754;47.700;7.924;2022-09-27T09:43:17;7.60;99.90
42615;DHT22;28754;47.700;7.924;2022-09-27T09:46:18;7.60;99.90
42615;DHT22;28754;47.700;7.924;2022-09-27T09:49:36;7.70;99.90
42615;DHT22;28754;47.700;7.924;2022-09-27T09:52:39;7.60;99.90
42615;DHT22;28754;47.700;7.924;2022-09-27T09:55:33;7.50;99.90
42615;DHT22;28754;47.700;7.924;2022-09-27T09:58:34;7.50;99.90
42615;DHT22;28754;47.700;7.924;2022-09-27T10:01:42;7.40;99.90
42615;DHT22;28754;47.700;7.924;2022-09-27T10:04:30;7.20;99.90
42615;DHT22;28754;47.700;7.924;2022-09-27T10:07:21;7.50;99.90
42615;DHT22;28754;47.700;7.924;2022-09-27T10:10:13;7.50;99.90
42615;DHT22;28754;47.700;7.924;2022-09-27T10:13:36;7.50;99.90
42615;DHT22;28754;47.700;7.924;2022-09-27T10:16:25;7.50;99.90
42615;DHT22;28754;47.700;7.924;2022-09-27T10:19:26;7.70;99.90
42615;DHT22;28754;47.700;7.924;2022-09-27T10:22:34;7.80;99.90
42615;DHT22;28754;47.700;7.924;2022-09-27T10:26:02;7.90;99.90
42615;DHT22;28754;47.700;7.924;2022-09-27T10:32:20;7.90;99.90
42615;DHT22;28754;47.700;7.924;2022-09-27T10:38:23;7.70;99.90
42615;DHT22;28754;47.700;7.924;2022-09-27T10:41:25;8.00;99.90
42615;DHT22;28754;47.700;7.924;2022-09-27T10:44:28;8.10;99.90
42615;DHT22;28754;47.700;7.924;2022-09-27T10:47:37;8.10;99.90
42615;DHT22;28754;47.700;7.924;2022-09-27T10:50:32;8.20;99.90
42615;DHT22;28754;47.700;7.924;2022-09-27T10:53:28;8.10;99.90
42615;DHT22;28754;47.700;7.924;2022-09-27T10:56:23;8.10;99.90
42615;DHT22;28754;47.700;7.924;2022-09-27T10:59:17;8.30;99.90
42615;DHT22;28754;47.700;7.924;2022-09-27T11:02:05;8.50;99.90
42615;DHT22;28754;47.700;7.924;2022-09-27T11:05:12;8.70;99.90
42615;DHT22;28754;47.700;7.924;2022-09-27T11:11:25;8.60;99.90
42615;DHT22;28754;47.700;7.924;2022-09-27T11:14:18;8.40;99.90
42615;DHT22;28754;47.700;7.924;2022-09-27T11:17:18;8.40;99.90
42615;DHT22;28754;47.700;7.924;2022-09-27T11:20:47;8.30;99.90
42615;DHT22;28754;47.700;7.924;2022-09-27T11:43:41;8.40;99.90
42615;DHT22;28754;47.700;7.924;2022-09-27T11:46:36;8.40;99.90
42615;DHT22;28754;47.700;7.924;2022-09-27T11:59:36;8.30;99.90
42615;DHT22;28754;47.700;7.924;2022-09-27T12:06:24;8.40;99.90
42615;DHT22;28754;47.700;7.924;2022-09-27T12:09:21;8.40;99.90
42615;DHT22;28754;47.700;7.924;2022-09-27T12:12:37;8.40;99.90
42615;DHT22;28754;47.700;7.924;2022-09-27T12:15:29;8.50;99.90
42615;DHT22;28754;47.700;7.924;2022-09-27T12:18:32;8.10;99.90
42615;DHT22;28754;47.700;7.924;2022-09-27T12:21:29;8.00;99.90
42615;DHT22;28754;47.700;7.924;2022-09-27T12:24:21;8.00;99.90
42615;DHT22;28754;47.700;7.924;2022-09-27T12:27:32;8.20;99.90
42615;DHT22;28754;47.700;7.924;2022-09-27T12:30:23;8.30;99.90
42615;DHT22;28754;47.700;7.924;2022-09-27T12:33:36;8.40;99.90
42615;DHT22;28754;47.700;7.924;2022-09-27T12:36:32;8.40;99.90
42615;DHT22;28754;47.700;7.924;2022-09-27T12:39:40;8.50;99.90
42615;DHT22;28754;47.700;7.924;2022-09-27T12:43:06;8.50;99.90
42615;DHT22;28754;47.700;7.924;2022-09-27T12:46:39;8.40;99.90
42615;DHT22;28754;47.700;7.924;2022-09-27T12:53:13;8.40;99.90
42615;DHT22;28754;47.700;7.924;2022-09-27T13:00:08;8.40;99.90
42615;DHT22;28754;47.700;7.924;2022-09-27T13:03:20;8.50;99.90
42615;DHT22;28754;47.700;7.924;2022-09-27T13:06:47;8.50;99.90
42615;DHT22;28754;47.700;7.924;2022-09-27T13:13:01;8.40;99.90
42615;DHT22;28754;47.700;7.924;2022-09-27T13:15:58;8.40;99.90
42615;DHT22;28754;47.700;7.924;2022-09-27T13:18:58;8.40;99.90
42615;DHT22;28754;47.700;7.924;2022-09-27T13:24:43;8.50;99.90
42615;DHT22;28754;47.700;7.924;2022-09-27T13:27:50;8.40;99.90
42615;DHT22;28754;47.700;7.924;2022-09-27T13:30:44;8.60;99.90
42615;DHT22;28754;47.700;7.924;2022-09-27T13:36:36;8.60;99.90
42615;DHT22;28754;47.700;7.924;2022-09-27T13:39:27;8.40;99.90
42615;DHT22;28754;47.700;7.924;2022-09-27T13:46:14;8.30;99.90
42615;DHT22;28754;47.700;7.924;2022-09-27T13:49:20;8.10;99.90
42615;DHT22;28754;47.700;7.924;2022-09-27T13:52:36;8.10;99.90
42615;DHT22;28754;47.700;7.924;2022-09-27T14:28:48;7.80;99.90
42615;DHT22;28754;47.700;7.924;2022-09-27T14:32:04;7.80;99.90
42615;DHT22;28754;47.700;7.924;2022-09-27T14:35:19;7.90;99.90
42615;DHT22;28754;47.700;7.924;2022-09-27T14:38:36;7.90;99.90
42615;DHT22;28754;47.700;7.924;2022-09-27T14:41:37;7.80;99.90
42615;DHT22;28754;47.700;7.924;2022-09-27T14:48:44;8.00;99.90
42615;DHT22;28754;47.700;7.924;2022-09-27T14:56:28;8.10;99.90
42615;DHT22;28754;47.700;7.924;2022-09-27T14:59:29;8.10;99.90
42615;DHT22;28754;47.700;7.924;2022-09-27T15:02:47;8.20;99.90
42615;DHT22;28754;47.700;7.924;2022-09-27T15:06:20;8.20;99.90
42615;DHT22;28754;47.700;7.924;2022-09-27T15:12:49;8.10;99.90
42615;DHT22;28754;47.700;7.924;2022-09-27T15:15:52;8.10;99.90
42615;DHT22;28754;47.700;7.924;2022-09-27T15:19:24;8.20;99.90
42615;DHT22;28754;47.700;7.924;2022-09-27T15:22:40;8.20;99.90
42615;DHT22;28754;47.700;7.924;2022-09-27T15:25:34;8.00;99.90
42615;DHT22;28754;47.700;7.924;2022-09-27T15:28:23;8.10;99.90
42615;DHT22;28754;47.700;7.924;2022-09-27T15:31:12;8.10;99.90
42615;DHT22;28754;47.700;7.924;2022-09-27T15:34:06;8.10;99.90
42615;DHT22;28754;47.700;7.924;2022-09-27T15:37:24;8.10;99.90
42615;DHT22;28754;47.700;7.924;2022-09-27T15:43:44;8.00;99.90
42615;DHT22;28754;47.700;7.924;2022-09-27T15:46:47;8.00;99.90
42615;DHT22;28754;47.700;7.924;2022-09-27T15:52:57;8.10;99.90
42615;DHT22;28754;47.700;7.924;2022-09-27T16:09:29;8.00;99.90
42615;DHT22;28754;47.700;7.924;2022-09-27T16:13:06;8.00;99.90
42615;DHT22;28754;47.700;7.924;2022-09-27T16:16:27;7.80;99.90
42615;DHT22;28754;47.700;7.924;2022-09-27T16:19:21;7.70;99.90
42615;DHT22;28754;47.700;7.924;2022-09-27T16:22:24;7.80;99.90
42615;DHT22;28754;47.700;7.924;2022-09-27T16:25:11;7.70;99.90
42615;DHT22;28754;47.700;7.924;2022-09-27T16:28:22;7.70;99.90
42615;DHT22;28754;47.700;7.924;2022-09-27T17:55:08;7.80;99.90
42615;DHT22;28754;47.700;7.924;2022-09-27T17:57:55;7.70;99.90
42615;DHT22;28754;47.700;7.924;2022-09-27T18:00:50;7.80;99.90
42615;DHT22;28754;47.700;7.924;2022-09-27T18:03:59;7.70;99.90
42615;DHT22;28754;47.700;7.924;2022-09-27T18:06:47;7.90;99.90
42615;DHT22;28754;47.700;7.924;2022-09-27T18:09:33;7.80;99.90
42615;DHT22;28754;47.700;7.924;2022-09-27T18:12:34;7.70;99.90
42615;DHT22;28754;47.700;7.924;2022-09-27T18:16:31;7.80;99.90
42615;DHT22;28754;47.700;7.924;2022-09-27T18:20:07;7.80;99.90
42615;DHT22;28754;47.700;7.924;2022-09-27T18:22:54;7.80;99.90
42615;DHT22;28754;47.700;7.924;2022-09-27T18:25:41;7.90;99.90
42615;DHT22;28754;47.700;7.924;2022-09-27T18:28:35;7.90;99.90
42615;DHT22;28754;47.700;7.924;2022-09-27T18:31:23;7.90;99.90
42615;DHT22;28754;47.700;7.924;2022-09-27T18:34:21;8.00;99.90
42615;DHT22;28754;47.700;7.924;2022-09-27T18:37:23;8.00;99.90
42615;DHT22;28754;47.700;7.924;2022-09-27T18:40:14;7.90;99.90
42615;DHT22;28754;47.700;7.924;2022-09-27T18:43:04;7.90;99.90
42615;DHT22;28754;47.700;7.924;2022-09-27T18:46:03;7.90;99.90
42615;DHT22;28754;47.700;7.924;2022-09-27T18:48:54;7.90;99.90
42615;DHT22;28754;47.700;7.924;2022-09-27T18:51:42;7.90;99.90
42615;DHT22;28754;47.700;7.924;2022-09-27T18:54:31;7.80;99.90
42615;DHT22;28754;47.700;7.924;2022-09-27T18:57:20;7.90;99.90
42615;DHT22;28754;47.700;7.924;2022-09-27T19:00:17;7.90;99.90
42615;DHT22;28754;47.700;7.924;2022-09-27T19:03:14;7.80;99.90
42615;DHT22;28754;47.700;7.924;2022-09-27T19:06:17;7.90;99.90
42615;DHT22;28754;47.700;7.924;2022-09-27T19:09:06;7.80;99.90
42615;DHT22;28754;47.700;7.924;2022-09-27T19:11:53;7.80;99.90
42615;DHT22;28754;47.700;7.924;2022-09-27T19:14:45;7.80;99.90
42615;DHT22;28754;47.700;7.924;2022-09-27T19:17:34;7.80;99.90
42615;DHT22;28754;47.700;7.924;2022-09-27T19:20:31;7.80;99.90
42615;DHT22;28754;47.700;7.924;2022-09-27T19:24:08;7.90;99.90
42615;DHT22;28754;47.700;7.924;2022-09-27T19:27:03;7.80;99.90
42615;DHT22;28754;47.700;7.924;2022-09-27T19:29:50;7.80;99.90
42615;DHT22;28754;47.700;7.924;2022-09-27T19:32:37;7.80;99.90
42615;DHT22;28754;47.700;7.924;2022-09-27T19:35:23;7.70;99.90
42615;DHT22;28754;47.700;7.924;2022-09-27T19:38:13;7.70;99.90
42615;DHT22;28754;47.700;7.924;2022-09-27T19:41:08;7.80;99.90
42615;DHT22;28754;47.700;7.924;2022-09-27T19:44:03;7.80;99.90
42615;DHT22;28754;47.700;7.924;2022-09-27T19:46:50;7.80;99.90
42615;DHT22;28754;47.700;7.924;2022-09-27T19:49:37;7.80;99.90
42615;DHT22;28754;47.700;7.924;2022-09-27T19:52:26;7.70;99.90
42615;DHT22;28754;47.700;7.924;2022-09-27T19:55:35;7.70;99.90
42615;DHT22;28754;47.700;7.924;2022-09-27T20:03:37;7.80;99.90
42615;DHT22;28754;47.700;7.924;2022-09-27T20:06:56;7.80;99.90
42615;DHT22;28754;47.700;7.924;2022-09-27T20:22:25;7.90;99.90
42615;DHT22;28754;47.700;7.924;2022-09-27T20:30:29;7.70;99.90
42615;DHT22;28754;47.700;7.924;2022-09-27T20:39:08;7.80;99.90
42615;DHT22;28754;47.700;7.924;2022-09-27T20:47:44;7.80;99.90
42615;DHT22;28754;47.700;7.924;2022-09-27T20:56:14;7.90;99.90
42615;DHT22;28754;47.700;7.924;2022-09-27T20:59:47;7.80;99.90
42615;DHT22;28754;47.700;7.924;2022-09-27T21:03:42;7.70;99.90
42615;DHT22;28754;47.700;7.924;2022-09-27T21:07:19;7.70;99.90
42615;DHT22;28754;47.700;7.924;2022-09-27T21:10:17;7.80;99.90
42615;DHT22;28754;47.700;7.924;2022-09-27T21:13:04;7.70;99.90
42615;DHT22;28754;47.700;7.924;2022-09-27T21:15:51;7.70;99.90
42615;DHT22;28754;47.700;7.924;2022-09-27T21:18:43;7.60;99.90
42615;DHT22;28754;47.700;7.924;2022-09-27T21:21:30;7.60;99.90
42615;DHT22;28754;47.700;7.924;2022-09-27T21:24:17;7.80;99.90
42615;DHT22;28754;47.700;7.924;2022-09-27T21:27:06;7.80;99.90
42615;DHT22;28754;47.700;7.924;2022-09-27T21:29:58;7.90;99.90
42615;DHT22;28754;47.700;7.924;2022-09-27T21:32:54;7.80;99.90
42615;DHT22;28754;47.700;7.924;2022-09-27T21:36:35;7.80;99.90
42615;DHT22;28754;47.700;7.924;2022-09-27T21:39:42;7.80;99.90
42615;DHT22;28754;47.700;7.924;2022-09-27T21:43:28;7.80;99.90
42615;DHT22;28754;47.700;7.924;2022-09-27T21:46:43;7.90;99.90
42615;DHT22;28754;47.700;7.924;2022-09-27T21:49:47;7.90;99.90
42615;DHT22;28754;47.700;7.924;2022-09-27T21:52:36;8.00;99.90
42615;DHT22;28754;47.700;7.924;2022-09-27T21:55:25;7.90;99.90
42615;DHT22;28754;47.700;7.924;2022-09-27T21:58:14;7.90;99.90
42615;DHT22;28754;47.700;7.924;2022-09-27T22:01:08;7.90;99.90
42615;DHT22;28754;47.700;7.924;2022-09-27T22:04:07;7.90;99.90
42615;DHT22;28754;47.700;7.924;2022-09-27T22:11:13;7.90;99.90
42615;DHT22;28754;47.700;7.924;2022-09-27T22:14:35;7.90;99.90
42615;DHT22;28754;47.700;7.924;2022-09-27T22:17:29;7.90;99.90
42615;DHT22;28754;47.700;7.924;2022-09-27T22:20:16;7.80;99.90
42615;DHT22;28754;47.700;7.924;2022-09-27T22:23:03;7.70;99.90
42615;DHT22;28754;47.700;7.924;2022-09-27T22:25:49;7.80;99.90
42615;DHT22;28754;47.700;7.924;2022-09-27T22:28:36;7.90;99.90
42615;DHT22;28754;47.700;7.924;2022-09-27T22:31:22;7.90;99.90
42615;DHT22;28754;47.700;7.924;2022-09-27T22:34:15;7.90;99.90
42615;DHT22;28754;47.700;7.924;2022-09-27T22:37:03;8.00;99.90
42615;DHT22;28754;47.700;7.924;2022-09-27T22:39:50;8.00;99.90
42615;DHT22;28754;47.700;7.924;2022-09-27T22:42:37;8.00;99.90
42615;DHT22;28754;47.700;7.924;2022-09-27T22:45:24;8.00;99.90
42615;DHT22;28754;47.700;7.924;2022-09-27T22:48:11;8.00;99.90
42615;DHT22;28754;47.700;7.924;2022-09-27T22:50:58;8.00;99.90
42615;DHT22;28754;47.700;7.924;2022-09-27T22:53:45;8.00;99.90
42615;DHT22;28754;47.700;7.924;2022-09-27T22:56:32;8.00;99.90
42615;DHT22;28754;47.700;7.924;2022-09-27T22:59:19;7.90;99.90
42615;DHT22;28754;47.700;7.924;2022-09-27T23:02:05;7.80;99.90
42615;DHT22;28754;47.700;7.924;2022-09-27T23:04:52;7.90;99.90
42615;DHT22;28754;47.700;7.924;2022-09-27T23:07:40;7.90;99.90
42615;DHT22;28754;47.700;7.924;2022-09-27T23:10:28;7.90;99.90
42615;DHT22;28754;47.700;7.924;2022-09-27T23:13:15;8.00;99.90
42615;DHT22;28754;47.700;7.924;2022-09-27T23:16:07;8.00;99.90
42615;DHT22;28754;47.700;7.924;2022-09-27T23:18:55;8.10;99.90
42615;DHT22;28754;47.700;7.924;2022-09-27T23:21:43;8.00;99.90
42615;DHT22;28754;47.700;7.924;2022-09-27T23:24:29;8.10;99.90
42615;DHT22;28754;47.700;7.924;2022-09-27T23:27:16;8.10;99.90
42615;DHT22;28754;47.700;7.924;2022-09-27T23:30:21;8.10;99.90
42615;DHT22;28754;47.700;7.924;2022-09-27T23:33:11;8.10;99.90
42615;DHT22;28754;47.700;7.924;2022-09-27T23:36:01;8.10;99.90
42615;DHT22;28754;47.700;7.924;2022-09-27T23:38:49;8.10;99.90
42615;DHT22;28754;47.700;7.924;2022-09-27T23:41:35;8.10;99.90
42615;DHT22;28754;47.700;7.924;2022-09-27T23:44:22;8.10;99.90
42615;DHT22;28754;47.700;7.924;2022-09-27T23:47:09;8.10;99.90
42615;DHT22;28754;47.700;7.924;2022-09-27T23:49:56;8.10;99.90
42615;DHT22;28754;47.700;7.924;2022-09-27T23:52:43;8.10;99.90
42615;DHT22;28754;47.700;7.924;2022-09-27T23:55:30;8.20;99.90
42615;DHT22;28754;47.700;7.924;2022-09-27T23:58:16;8.20;99.90
